Portada
METAR-TAF:

METAR-TAF

Aeroports :

Base Naval de Rota

Rota, Espanya

latitud: 36-39N, longitud: 006-21W, altitud: 26 m

Observació

L'informe es va fer fa 16 minuts, a les 13:00 UTC
Vent 14 kt del Oest, variant entre Oest/Sud-Oest i Nord/Nord-Oest
Temperatura 23°C
Humitat 50%
Pressió 1016 hPa
Visibilitat 10 km o més
Escasses núvols a una alçada de 3500 ft

METAR: LERT 211300Z 28014KT 240V330 9999 FEW035 23/12 Q1016 NOSIG

Hora: 15:16 (13:16 UTC)

Pronòstic

L'informe es va fer fa 5 hores i 16 minuts, a les 08:00 UTC
Pronòstic vàlid del 21 a les 09 UTC al 22 a les 09 UTC
Vent 9 kt del Oest/Nord-Oest
Visibilitat 10 km o més
Escasses núvols a una alçada de 3000 ft
Probabilitat 40% :
Temporalment
l' 21 a les 15 UTC al 21 a les 21 UTC
Vent 15 kt del Oest amb ràfegues de 25 kt

TAF: LERT 210800Z 2109/2209 30009KT 9999 FEW030 TX23/2113Z TN16/2206Z PROB40 TEMPO 2115/2121 27015G25KT

Observacions i pronòstics meteorològics de més de 4000 aeroports (METAR i TAF).

Les estacions disponibles són els punts grocs i vermells al mapa.

Posi el ratolí al punt desitjat per veure el nom de l'estació.

Feu clic per veure les observacions i els pronòstics meteorològics.

Per canviar el mapa: feu clic els botons verds amb una creu de color negre per apropar; al botó verd amb un guió per allunyar la imatge; o en les fletxes verdes per a mapes adjacents.


METAR-TAF: